Time;durP1;ratioP1;P1;durP2;ratioP2;P2;SDS_P1;SDS_P2;PMS_P1;PMS_P2;Temp;Humidity;BMP_temperature;BMP_pressure;BME280_temperature;BME280_humidity;BME280_pressure;Samples;Min_cycle;Max_cycle;Signal;HPM_P1;HPM_P2
2021/10/21 00:01:57;;;;;;;7.13;4.10;;;16.50;99.90;;;;;;5076474;28;20117;-47
2021/10/21 00:04:24;;;;;;;4.40;4.00;;;16.50;99.90;;;;;;5082835;28;20028;-48
2021/10/21 00:06:49;;;;;;;7.03;4.05;;;16.50;99.90;;;;;;5078317;28;20115;-50
2021/10/21 00:09:15;;;;;;;4.68;3.90;;;16.60;99.90;;;;;;5082245;28;20157;-47
2021/10/21 00:11:41;;;;;;;6.72;4.60;;;16.50;99.90;;;;;;5079532;28;20023;-48
2021/10/21 00:14:06;;;;;;;8.85;4.40;;;16.40;99.90;;;;;;5082377;28;20032;-47
2021/10/21 00:33:22;;;;;;;6.15;4.07;;;16.40;99.90;;;;;;5075349;28;20032;-47
2021/10/21 00:35:48;;;;;;;7.97;4.50;;;16.30;99.90;;;;;;5088084;28;20405;-47
2021/10/21 00:38:13;;;;;;;6.50;4.40;;;16.40;99.90;;;;;;5077080;28;20120;-48
2021/10/21 00:40:38;;;;;;;5.50;4.35;;;16.40;99.90;;;;;;5087731;28;20039;-48
2021/10/21 00:43:04;;;;;;;9.10;4.72;;;16.40;99.90;;;;;;5079926;28;20029;-47
2021/10/21 00:45:30;;;;;;;5.22;3.95;;;16.40;99.90;;;;;;5086308;28;20024;-47
2021/10/21 00:47:56;;;;;;;5.95;4.35;;;16.50;99.90;;;;;;5081797;28;20547;-47
2021/10/21 00:50:22;;;;;;;8.13;4.57;;;16.40;99.90;;;;;;5084877;28;20027;-48
2021/10/21 00:52:48;;;;;;;8.23;4.35;;;16.40;99.90;;;;;;5085039;28;20501;-48
2021/10/21 00:55:14;;;;;;;6.50;4.00;;;16.40;99.90;;;;;;5083696;28;20028;-47
2021/10/21 00:57:40;;;;;;;7.68;4.20;;;16.50;99.90;;;;;;5072642;28;20029;-47
2021/10/21 01:00:06;;;;;;;6.70;4.38;;;16.40;99.90;;;;;;5081092;28;20054;-49
2021/10/21 01:02:32;;;;;;;5.65;3.60;;;16.40;99.90;;;;;;5076407;28;20263;-47
2021/10/21 01:04:57;;;;;;;6.47;4.20;;;16.50;99.90;;;;;;5081045;28;20093;-48
2021/10/21 01:07:23;;;;;;;5.15;3.88;;;16.60;99.90;;;;;;5079072;28;20083;-49
2021/10/21 01:09:48;;;;;;;4.55;3.88;;;16.60;99.90;;;;;;5077413;28;20016;-46
2021/10/21 01:12:14;;;;;;;6.10;3.85;;;16.70;99.90;;;;;;5085582;28;20048;-45
2021/10/21 01:14:40;;;;;;;9.95;4.45;;;16.70;99.90;;;;;;5076257;28;20107;-47
2021/10/21 01:17:05;;;;;;;6.53;4.10;;;16.70;99.90;;;;;;5088602;28;20370;-45
2021/10/21 01:19:32;;;;;;;4.43;3.30;;;16.70;99.90;;;;;;5072321;28;20059;-46
2021/10/21 01:21:57;;;;;;;7.05;4.20;;;16.70;99.90;;;;;;5049211;28;20024;-45
2021/10/21 01:24:24;;;;;;;5.47;3.53;;;16.70;99.90;;;;;;5072032;28;20028;-48
2021/10/21 01:26:51;;;;;;;6.68;3.13;;;16.70;99.90;;;;;;5088354;28;20027;-48
2021/10/21 01:29:20;;;;;;;4.05;3.22;;;16.70;99.90;;;;;;5080051;28;20508;-46
2021/10/21 01:31:47;;;;;;;5.88;4.00;;;16.70;99.90;;;;;;5087462;28;20542;-45
2021/10/21 01:34:13;;;;;;;5.90;3.85;;;16.70;99.90;;;;;;5072814;28;20028;-49
2021/10/21 01:36:40;;;;;;;5.15;3.50;;;16.70;99.90;;;;;;5080534;28;20031;-45
2021/10/21 01:39:08;;;;;;;5.88;3.45;;;16.70;99.90;;;;;;5076099;28;20036;-47
2021/10/21 01:41:35;;;;;;;6.20;3.47;;;16.70;99.90;;;;;;5080340;28;20442;-45
2021/10/21 01:44:01;;;;;;;4.15;3.30;;;16.70;99.90;;;;;;5080796;28;20020;-46
2021/10/21 01:46:26;;;;;;;7.57;3.08;;;16.70;99.90;;;;;;5080853;28;20380;-46
2021/10/21 01:48:52;;;;;;;4.45;3.60;;;16.70;99.90;;;;;;5083521;28;20186;-46
2021/10/21 01:51:18;;;;;;;4.75;3.53;;;16.70;99.90;;;;;;5080398;28;20182;-46
2021/10/21 01:53:44;;;;;;;3.83;3.13;;;16.70;99.90;;;;;;5086064;28;20472;-46
2021/10/21 01:56:09;;;;;;;4.97;2.90;;;16.70;99.90;;;;;;5080046;28;20028;-49
2021/10/21 01:58:35;;;;;;;4.28;2.60;;;16.70;99.90;;;;;;5087346;28;20389;-46
2021/10/21 02:01:02;;;;;;;3.88;2.78;;;16.80;99.90;;;;;;5075356;28;20118;-47
2021/10/21 02:03:27;;;;;;;4.75;3.20;;;16.70;99.90;;;;;;5084548;28;20059;-47
2021/10/21 02:05:53;;;;;;;5.32;3.35;;;16.70;99.90;;;;;;5073182;28;20056;-46
2021/10/21 02:08:18;;;;;;;6.28;3.22;;;16.80;99.90;;;;;;5082669;28;20030;-45
2021/10/21 02:10:45;;;;;;;4.57;2.95;;;16.70;99.90;;;;;;5075176;28;20020;-46
2021/10/21 02:13:10;;;;;;;3.13;2.67;;;16.70;99.90;;;;;;5082116;28;20024;-45
2021/10/21 02:15:36;;;;;;;5.82;2.95;;;16.70;99.90;;;;;;5078330;28;20363;-46
2021/10/21 02:18:02;;;;;;;7.45;2.97;;;16.70;99.90;;;;;;5079916;28;20166;-45
2021/10/21 02:20:28;;;;;;;5.47;2.83;;;16.70;99.90;;;;;;5082648;28;20242;-46
2021/10/21 02:22:53;;;;;;;4.60;2.20;;;16.70;99.90;;;;;;5078565;28;20142;-46
2021/10/21 02:25:20;;;;;;;2.58;2.35;;;16.70;99.90;;;;;;5082701;28;20072;-46
2021/10/21 02:27:46;;;;;;;8.95;2.70;;;16.80;99.90;;;;;;5079291;28;20124;-46
2021/10/21 02:30:13;;;;;;;3.88;2.50;;;16.80;99.90;;;;;;5083079;28;20139;-46
2021/10/21 02:32:39;;;;;;;6.28;2.53;;;16.80;99.90;;;;;;5079733;28;20381;-47
2021/10/21 02:35:06;;;;;;;3.55;2.22;;;16.70;99.90;;;;;;5086256;28;20359;-46
2021/10/21 02:37:32;;;;;;;4.47;2.90;;;16.80;99.90;;;;;;5079004;28;20405;-45
2021/10/21 02:39:57;;;;;;;4.38;3.00;;;16.90;99.90;;;;;;5088317;28;20024;-48
2021/10/21 02:42:23;;;;;;;4.38;2.80;;;16.90;99.90;;;;;;5071571;28;20107;-46
2021/10/21 02:44:49;;;;;;;4.00;2.35;;;16.90;99.90;;;;;;5078635;28;20054;-47
2021/10/21 02:47:14;;;;;;;5.38;2.80;;;16.90;99.90;;;;;;5073638;28;20049;-46
2021/10/21 02:49:40;;;;;;;2.50;2.10;;;17.00;99.90;;;;;;5079616;28;20051;-46
2021/10/21 02:52:05;;;;;;;3.10;2.70;;;16.90;99.90;;;;;;5084208;28;20050;-47
2021/10/21 02:54:31;;;;;;;4.63;3.08;;;16.90;99.90;;;;;;5079589;28;20032;-45
2021/10/21 02:56:57;;;;;;;7.35;3.65;;;16.70;99.90;;;;;;5081564;28;20289;-46
2021/10/21 02:59:23;;;;;;;6.57;3.60;;;16.40;99.90;;;;;;5070748;28;20054;-48
2021/10/21 03:01:48;;;;;;;4.95;3.33;;;16.20;99.90;;;;;;5088002;28;20024;-45
2021/10/21 03:04:14;;;;;;;3.88;3.47;;;16.00;99.90;;;;;;5074319;28;20469;-46
2021/10/21 03:06:40;;;;;;;5.45;3.65;;;15.80;99.90;;;;;;5074739;28;20103;-46
2021/10/21 03:09:05;;;;;;;6.65;3.70;;;15.70;99.90;;;;;;5063731;28;20020;-47
2021/10/21 03:11:31;;;;;;;6.30;3.80;;;15.50;99.90;;;;;;5063055;28;20085;-45
2021/10/21 03:13:56;;;;;;;4.05;3.13;;;15.40;99.90;;;;;;5065420;28;20385;-47
2021/10/21 03:16:22;;;;;;;6.13;3.78;;;15.40;99.90;;;;;;5062596;28;20394;-46
2021/10/21 03:18:47;;;;;;;5.20;3.60;;;15.30;99.90;;;;;;5063596;28;20486;-48
2021/10/21 03:21:13;;;;;;;4.68;3.13;;;15.30;99.90;;;;;;5063288;28;20037;-45
2021/10/21 03:23:38;;;;;;;3.88;3.13;;;15.20;99.90;;;;;;5062063;28;20029;-44
2021/10/21 03:26:04;;;;;;;9.68;3.15;;;15.10;99.90;;;;;;5063129;28;20021;-47
2021/10/21 03:28:30;;;;;;;4.90;3.50;;;15.10;99.90;;;;;;5059624;28;20012;-45
2021/10/21 03:30:55;;;;;;;3.63;3.00;;;15.00;99.90;;;;;;5065918;28;20112;-46
2021/10/21 03:33:21;;;;;;;5.97;2.78;;;15.00;99.90;;;;;;5059990;28;20025;-46
2021/10/21 03:35:46;;;;;;;5.40;2.58;;;15.00;99.90;;;;;;5066303;28;20028;-46
2021/10/21 03:38:12;;;;;;;6.05;2.78;;;15.00;99.90;;;;;;5059716;28;20037;-46
2021/10/21 03:40:37;;;;;;;7.50;2.90;;;14.90;99.90;;;;;;5063208;28;20039;-45
2021/10/21 03:43:03;;;;;;;3.80;2.60;;;15.00;99.90;;;;;;5061295;28;20032;-46
2021/10/21 03:45:29;;;;;;;2.92;2.70;;;15.00;99.90;;;;;;5062239;28;20502;-45
2021/10/21 03:47:54;;;;;;;4.10;2.17;;;15.00;99.90;;;;;;5060579;28;20032;-48
2021/10/21 03:50:20;;;;;;;4.70;2.15;;;15.00;99.90;;;;;;5068509;28;20638;-46
2021/10/21 03:52:45;;;;;;;4.40;2.30;;;15.00;99.90;;;;;;5064126;28;20028;-45
2021/10/21 03:55:11;;;;;;;5.97;2.78;;;15.10;99.90;;;;;;5067601;28;20553;-46
2021/10/21 03:57:37;;;;;;;6.18;2.10;;;15.10;99.90;;;;;;5063303;28;20055;-47
2021/10/21 04:00:05;;;;;;;2.65;2.08;;;15.10;99.90;;;;;;5062998;28;20031;-46
2021/10/21 04:02:31;;;;;;;2.35;1.70;;;15.20;99.90;;;;;;5075737;28;20049;-49
2021/10/21 04:04:56;;;;;;;1.65;1.42;;;15.20;99.90;;;;;;5068870;28;20016;-46
2021/10/21 04:07:22;;;;;;;2.15;1.80;;;15.30;99.90;;;;;;5080818;28;20496;-45
2021/10/21 04:09:47;;;;;;;2.47;1.60;;;15.40;99.90;;;;;;5077059;28;20053;-45
2021/10/21 04:12:13;;;;;;;4.03;1.73;;;15.50;99.90;;;;;;5083543;28;20024;-45
2021/10/21 04:14:40;;;;;;;5.03;1.67;;;15.50;99.90;;;;;;5064770;28;20033;-45
2021/10/21 04:17:05;;;;;;;4.32;1.70;;;15.60;99.90;;;;;;5081221;28;20028;-45
2021/10/21 04:19:31;;;;;;;1.65;1.20;;;15.60;99.90;;;;;;5079131;28;20493;-45
2021/10/21 04:21:56;;;;;;;3.05;1.50;;;15.60;99.90;;;;;;5082205;28;20031;-47
2021/10/21 04:24:22;;;;;;;1.70;1.10;;;15.60;99.90;;;;;;5082030;28;20025;-47
2021/10/21 04:26:47;;;;;;;2.00;1.30;;;15.60;99.90;;;;;;5079331;28;20031;-45
2021/10/21 04:29:13;;;;;;;4.35;1.45;;;15.60;99.90;;;;;;5085101;28;20085;-45
2021/10/21 04:31:38;;;;;;;2.20;1.23;;;15.70;99.90;;;;;;5076676;28;20078;-46
2021/10/21 04:34:04;;;;;;;3.85;1.20;;;15.60;99.90;;;;;;5088499;28;20028;-45
2021/10/21 04:36:29;;;;;;;1.30;1.20;;;15.70;99.90;;;;;;5073940;28;20035;-45
2021/10/21 04:38:55;;;;;;;4.63;1.25;;;15.60;99.90;;;;;;5088600;28;20130;-46
2021/10/21 04:41:20;;;;;;;1.77;1.40;;;15.70;99.90;;;;;;5072877;28;20499;-46
2021/10/21 04:43:46;;;;;;;1.75;1.48;;;15.70;99.90;;;;;;5081374;28;20039;-45
2021/10/21 04:46:11;;;;;;;3.65;1.40;;;15.80;99.90;;;;;;5082686;28;20024;-45
2021/10/21 04:48:38;;;;;;;3.92;1.60;;;15.80;99.90;;;;;;5081081;28;20093;-46
2021/10/21 04:51:06;;;;;;;1.52;1.10;;;15.80;99.90;;;;;;5083389;28;20111;-45
2021/10/21 04:53:32;;;;;;;2.80;1.23;;;15.80;99.90;;;;;;5081557;28;20039;-46
2021/10/21 04:55:57;;;;;;;2.88;1.58;;;15.90;99.90;;;;;;5085244;28;20027;-46
2021/10/21 04:58:23;;;;;;;4.32;1.17;;;15.80;99.90;;;;;;5081006;28;20047;-45
2021/10/21 05:00:48;;;;;;;4.32;1.20;;;15.90;99.90;;;;;;5090023;28;20020;-45
2021/10/21 05:03:14;;;;;;;3.65;1.10;;;15.90;99.90;;;;;;5076179;28;20031;-45
2021/10/21 05:05:40;;;;;;;2.78;0.82;;;15.90;99.90;;;;;;5081307;28;20039;-45
2021/10/21 05:08:06;;;;;;;2.35;0.70;;;15.80;99.90;;;;;;5083129;28;20130;-45
2021/10/21 05:10:32;;;;;;;1.83;0.80;;;15.80;99.90;;;;;;5074268;28;20457;-46
2021/10/21 05:12:57;;;;;;;4.10;0.70;;;15.80;99.30;;;;;;5049350;28;20056;-46
2021/10/21 05:15:23;;;;;;;6.55;1.00;;;15.70;98.90;;;;;;5062832;28;20043;-48
2021/10/21 05:17:49;;;;;;;4.70;0.88;;;15.70;98.00;;;;;;5080454;28;20028;-47
2021/10/21 05:20:15;;;;;;;4.97;0.93;;;15.70;96.90;;;;;;5082155;28;20389;-48
2021/10/21 05:22:40;;;;;;;2.80;0.88;;;15.60;96.30;;;;;;5080608;28;20520;-46
2021/10/21 05:25:06;;;;;;;5.03;0.82;;;15.50;95.70;;;;;;5084658;28;20248;-46
2021/10/21 05:27:32;;;;;;;3.72;0.70;;;15.50;95.40;;;;;;5080032;28;20448;-49
2021/10/21 05:29:58;;;;;;;1.42;0.60;;;15.40;95.50;;;;;;5082992;28;20020;-46
2021/10/21 05:32:23;;;;;;;2.05;0.70;;;15.40;95.60;;;;;;5072834;28;20074;-46
2021/10/21 05:34:50;;;;;;;1.15;0.50;;;15.40;95.80;;;;;;5088173;28;20097;-50
2021/10/21 05:37:15;;;;;;;2.17;0.70;;;15.30;95.50;;;;;;5072889;28;20052;-50
2021/10/21 05:39:41;;;;;;;3.10;0.50;;;15.20;95.70;;;;;;5086971;28;20060;-47
2021/10/21 05:42:08;;;;;;;6.20;1.02;;;15.10;95.90;;;;;;5072167;28;20013;-47
2021/10/21 05:44:33;;;;;;;1.95;0.90;;;15.10;95.80;;;;;;5080563;28;20036;-48
2021/10/21 05:46:59;;;;;;;2.85;0.80;;;15.00;96.20;;;;;;5083597;28;20030;-49
2021/10/21 05:49:24;;;;;;;7.50;1.00;;;15.00;96.30;;;;;;5080397;28;20016;-46
2021/10/21 05:51:50;;;;;;;3.60;0.90;;;15.00;96.20;;;;;;5086505;28;20030;-47
2021/10/21 05:54:16;;;;;;;3.88;0.73;;;15.10;95.70;;;;;;5071320;28;20036;-47
2021/10/21 05:56:43;;;;;;;3.40;0.93;;;15.00;96.00;;;;;;5088401;28;20386;-49
2021/10/21 05:59:09;;;;;;;4.70;0.98;;;15.00;96.40;;;;;;5080178;28;20020;-47
2021/10/21 06:01:34;;;;;;;4.45;0.68;;;15.00;96.20;;;;;;5081689;28;20043;-49
2021/10/21 06:04:00;;;;;;;6.68;1.80;;;15.00;96.30;;;;;;5090307;28;20027;-47
2021/10/21 06:06:25;;;;;;;15.27;1.20;;;15.00;96.30;;;;;;5084342;28;20035;-46
2021/10/21 06:08:51;;;;;;;3.47;0.60;;;15.00;96.30;;;;;;5080341;28;20036;-47
2021/10/21 06:11:16;;;;;;;1.58;0.80;;;15.00;96.60;;;;;;5074863;28;20029;-47
2021/10/21 06:13:43;;;;;;;7.93;0.80;;;15.00;96.70;;;;;;5073506;28;20490;-46
2021/10/21 06:16:08;;;;;;;3.05;0.75;;;15.00;97.10;;;;;;5057639;28;20112;-46
2021/10/21 06:18:35;;;;;;;3.10;0.95;;;15.00;96.90;;;;;;5069887;28;20126;-47
2021/10/21 06:21:05;;;;;;;3.78;0.98;;;15.10;97.10;;;;;;5068184;28;20047;-46
2021/10/21 06:23:30;;;;;;;1.58;0.57;;;15.00;97.10;;;;;;5073682;28;20028;-46
2021/10/21 06:25:56;;;;;;;1.80;0.85;;;15.10;97.50;;;;;;5054584;28;20029;-49
2021/10/21 06:28:21;;;;;;;2.40;0.95;;;15.10;97.80;;;;;;5072069;28;20036;-47
2021/10/21 06:30:47;;;;;;;3.10;1.08;;;15.10;98.50;;;;;;5088851;28;20477;-47
2021/10/21 06:33:14;;;;;;;4.43;1.33;;;15.10;99.10;;;;;;5073274;28;20404;-47
2021/10/21 06:35:44;;;;;;;2.55;1.00;;;15.10;99.90;;;;;;5084845;28;20036;-47
2021/10/21 06:38:10;;;;;;;6.22;1.25;;;15.00;99.90;;;;;;5082667;28;20475;-48
2021/10/21 06:40:36;;;;;;;4.25;1.13;;;14.80;99.90;;;;;;5079402;28;20048;-48
2021/10/21 06:43:02;;;;;;;2.65;0.90;;;14.60;99.90;;;;;;5086882;28;20582;-47
2021/10/21 06:45:28;;;;;;;3.30;0.85;;;14.40;99.90;;;;;;5074305;28;20111;-49
2021/10/21 06:47:53;;;;;;;2.17;0.85;;;14.40;99.90;;;;;;5092501;28;20099;-49
2021/10/21 06:50:20;;;;;;;4.78;1.58;;;14.40;99.90;;;;;;5078041;28;20107;-49
2021/10/21 06:52:47;;;;;;;9.45;1.25;;;14.30;99.90;;;;;;5090933;28;20070;-47
2021/10/21 06:55:14;;;;;;;4.07;0.98;;;14.20;99.90;;;;;;5074936;28;20035;-48
2021/10/21 06:57:51;;;;;;;4.97;1.20;;;14.10;99.90;;;;;;5083110;28;20020;-47
2021/10/21 07:00:18;;;;;;;3.65;0.70;;;13.70;99.90;;;;;;5084609;28;20028;-48
2021/10/21 07:02:44;;;;;;;6.75;1.02;;;13.50;99.90;;;;;;5082219;28;20558;-48
2021/10/21 07:05:11;;;;;;;2.83;1.10;;;13.40;99.90;;;;;;5085499;28;20374;-48
2021/10/21 07:07:36;;;;;;;4.63;1.08;;;13.30;99.90;;;;;;5082707;28;20012;-46
2021/10/21 07:10:05;;;;;;;4.80;1.63;;;13.20;99.90;;;;;;5082747;28;20036;-50
2021/10/21 07:12:32;;;;;;;1.83;0.90;;;13.10;99.90;;;;;;5076206;28;20495;-46
2021/10/21 07:14:57;;;;;;;4.45;1.10;;;13.10;99.90;;;;;;5051401;28;20501;-48
2021/10/21 07:17:23;;;;;;;8.50;1.10;;;13.00;99.90;;;;;;5074238;28;20028;-46
2021/10/21 07:19:49;;;;;;;4.45;1.00;;;13.00;99.90;;;;;;5088784;28;20016;-47
2021/10/21 07:22:15;;;;;;;5.38;1.30;;;13.00;99.90;;;;;;5077459;28;20032;-48
2021/10/21 07:24:42;;;;;;;5.90;1.67;;;13.00;99.90;;;;;;5089370;28;20024;-46
2021/10/21 07:27:08;;;;;;;5.40;1.58;;;12.90;99.90;;;;;;5073441;28;20500;-50
2021/10/21 07:29:33;;;;;;;6.05;1.83;;;12.90;99.90;;;;;;5073531;28;20028;-46
2021/10/21 07:31:59;;;;;;;4.90;1.45;;;12.90;99.90;;;;;;5067214;28;20389;-46
2021/10/21 07:34:24;;;;;;;7.00;1.13;;;12.80;99.90;;;;;;5081724;28;20028;-47
2021/10/21 07:36:50;;;;;;;5.68;1.17;;;12.90;99.90;;;;;;5078625;28;20597;-46
2021/10/21 07:39:15;;;;;;;5.68;1.20;;;12.80;99.90;;;;;;5081001;28;20028;-49
2021/10/21 07:41:42;;;;;;;4.97;1.42;;;12.90;99.90;;;;;;5079567;28;20120;-48
2021/10/21 07:44:08;;;;;;;2.70;0.57;;;13.10;99.90;;;;;;5082639;28;20493;-46
2021/10/21 07:46:34;;;;;;;3.10;1.45;;;13.20;99.90;;;;;;5088707;28;20044;-47
2021/10/21 07:49:01;;;;;;;5.05;1.10;;;13.30;99.90;;;;;;5081789;28;20016;-48
2021/10/21 07:51:30;;;;;;;2.20;0.90;;;13.40;99.90;;;;;;5091248;28;20053;-49
2021/10/21 07:53:56;;;;;;;10.20;1.23;;;13.40;99.90;;;;;;5066851;28;20020;-46
2021/10/21 07:56:22;;;;;;;3.10;1.00;;;13.50;99.90;;;;;;5075765;28;20037;-47
2021/10/21 07:58:47;;;;;;;9.30;1.00;;;13.60;99.90;;;;;;5070786;28;20024;-46
2021/10/21 08:01:13;;;;;;;5.32;1.00;;;13.60;99.90;;;;;;5084620;28;20032;-46
2021/10/21 08:03:39;;;;;;;4.40;0.98;;;13.60;99.90;;;;;;5076209;28;20493;-46
2021/10/21 08:06:04;;;;;;;1.85;0.90;;;13.60;99.90;;;;;;5083538;28;20118;-45
2021/10/21 08:08:30;;;;;;;7.65;1.67;;;13.30;99.90;;;;;;5077619;28;20055;-46
2021/10/21 08:10:56;;;;;;;4.18;1.30;;;13.30;99.90;;;;;;5082110;28;20020;-47
2021/10/21 08:13:22;;;;;;;2.35;0.90;;;13.30;99.90;;;;;;5079138;28;20123;-46
2021/10/21 08:15:50;;;;;;;7.03;1.50;;;13.30;99.90;;;;;;5081968;28;20056;-48
2021/10/21 08:18:15;;;;;;;3.08;0.80;;;13.40;99.90;;;;;;5079473;28;20047;-48
2021/10/21 08:20:44;;;;;;;10.38;1.20;;;13.60;99.90;;;;;;5082031;28;20509;-47
2021/10/21 08:23:11;;;;;;;1.33;0.60;;;13.80;99.90;;;;;;5082035;28;20032;-47
2021/10/21 08:25:37;;;;;;;1.45;0.60;;;14.10;99.90;;;;;;5081919;28;20572;-47
2021/10/21 08:28:03;;;;;;;1.05;0.77;;;14.30;99.90;;;;;;5082387;28;20032;-48
2021/10/21 08:30:31;;;;;;;1.58;0.63;;;14.50;99.90;;;;;;5072917;28;20032;-47
2021/10/21 08:32:57;;;;;;;2.35;0.77;;;14.50;99.90;;;;;;5049568;28;20132;-47
2021/10/21 08:35:25;;;;;;;2.45;0.90;;;14.50;99.90;;;;;;5072180;28;20039;-46
2021/10/21 08:37:51;;;;;;;2.78;0.50;;;14.30;99.90;;;;;;5086132;28;20558;-46
2021/10/21 08:40:16;;;;;;;3.22;0.50;;;14.30;99.90;;;;;;5072474;28;20090;-47
2021/10/21 08:42:44;;;;;;;1.13;0.52;;;14.30;99.90;;;;;;5088178;28;20032;-47
2021/10/21 08:45:09;;;;;;;2.42;0.68;;;14.30;99.90;;;;;;5071677;28;20028;-46
2021/10/21 08:47:40;;;;;;;1.45;0.50;;;14.20;99.90;;;;;;5086532;28;20027;-47
2021/10/21 08:50:06;;;;;;;2.13;0.63;;;14.10;99.90;;;;;;5072418;28;20021;-47
2021/10/21 08:52:32;;;;;;;4.15;0.50;;;14.10;99.90;;;;;;5085993;28;20068;-46
2021/10/21 08:54:58;;;;;;;2.65;1.08;;;14.10;99.90;;;;;;5075345;28;20444;-47
2021/10/21 08:57:23;;;;;;;1.40;0.77;;;14.00;99.90;;;;;;5083526;28;20117;-46
2021/10/21 08:59:49;;;;;;;4.32;0.93;;;13.70;99.90;;;;;;5076815;28;20020;-46
2021/10/21 09:02:20;;;;;;;2.40;0.75;;;13.20;99.90;;;;;;5083480;28;20044;-47
2021/10/21 09:04:58;;;;;;;2.47;0.70;;;12.60;99.90;;;;;;5078647;28;20381;-49
2021/10/21 09:10:10;;;;;;;3.60;0.80;;;11.60;99.90;;;;;;5075940;28;20075;-47
2021/10/21 09:12:44;;;;;;;1.33;0.30;;;11.20;99.90;;;;;;5086773;28;20048;-45
2021/10/21 09:15:15;;;;;;;2.67;0.70;;;11.00;99.90;;;;;;5076912;28;20471;-47
2021/10/21 09:17:41;;;;;;;1.65;0.60;;;11.00;99.90;;;;;;5086845;28;20024;-47
2021/10/21 09:20:27;;;;;;;0.63;0.50;;;10.90;99.90;;;;;;5077435;28;20039;-46
2021/10/21 09:22:59;;;;;;;4.30;0.93;;;10.90;99.90;;;;;;5088524;28;20031;-46
2021/10/21 09:25:29;;;;;;;1.55;0.47;;;10.90;99.90;;;;;;5077498;28;20025;-47
2021/10/21 09:27:56;;;;;;;3.33;0.60;;;10.90;99.90;;;;;;5088470;28;20382;-47
2021/10/21 09:30:24;;;;;;;2.15;0.68;;;10.80;99.90;;;;;;5080862;28;20287;-46
2021/10/21 09:32:50;;;;;;;1.58;0.60;;;10.80;99.90;;;;;;5088719;28;20021;-46
2021/10/21 09:35:18;;;;;;;3.80;1.25;;;10.80;99.90;;;;;;5076067;28;20031;-50
2021/10/21 09:37:46;;;;;;;1.70;0.70;;;10.90;99.90;;;;;;5079811;28;20496;-48
2021/10/21 09:40:14;;;;;;;1.85;0.57;;;10.90;99.90;;;;;;5077101;28;20075;-46
2021/10/21 09:42:45;;;;;;;2.40;0.60;;;10.90;99.90;;;;;;5080434;28;20078;-47
2021/10/21 09:45:14;;;;;;;1.13;0.50;;;10.90;99.90;;;;;;5073677;28;20055;-47
2021/10/21 09:47:52;;;;;;;1.65;0.60;;;10.80;99.90;;;;;;5070702;28;20021;-47
2021/10/21 09:50:28;;;;;;;2.30;0.50;;;10.80;99.90;;;;;;5061723;28;20021;-47
2021/10/21 09:53:10;;;;;;;3.13;0.88;;;10.80;99.90;;;;;;5059728;28;20096;-46
2021/10/21 09:55:37;;;;;;;2.47;1.02;;;10.90;99.90;;;;;;5058806;28;20656;-47
2021/10/21 09:58:05;;;;;;;2.13;1.40;;;10.80;99.90;;;;;;5068423;28;20488;-47
2021/10/21 10:00:33;;;;;;;4.43;1.80;;;10.90;99.90;;;;;;5057156;28;20033;-49
2021/10/21 10:03:13;;;;;;;1.60;1.40;;;11.00;99.90;;;;;;5065276;28;20027;-47
2021/10/21 10:05:40;;;;;;;3.72;1.88;;;11.10;99.90;;;;;;5065463;28;20019;-46
2021/10/21 10:08:10;;;;;;;2.03;1.50;;;11.20;99.90;;;;;;5069524;28;20040;-49
2021/10/21 10:10:37;;;;;;;4.35;1.20;;;11.20;99.90;;;;;;5085401;28;20020;-46
2021/10/21 10:13:03;;;;;;;3.20;1.40;;;11.30;99.90;;;;;;5072619;28;20111;-49
2021/10/21 10:15:28;;;;;;;2.13;1.25;;;11.40;99.90;;;;;;5083002;28;20536;-50
2021/10/21 10:17:56;;;;;;;4.75;1.75;;;11.40;99.90;;;;;;5076988;28;20017;-50
2021/10/21 10:20:26;;;;;;;1.75;1.15;;;11.80;99.90;;;;;;5082407;28;20117;-46
2021/10/21 10:22:52;;;;;;;3.55;0.88;;;12.10;99.90;;;;;;5078859;28;20036;-47
2021/10/21 10:25:20;;;;;;;4.18;0.98;;;12.10;99.90;;;;;;5082897;28;20034;-49
2021/10/21 10:27:59;;;;;;;3.42;1.00;;;11.90;99.90;;;;;;5079913;28;20386;-47
2021/10/21 10:30:45;;;;;;;3.58;1.33;;;11.80;99.90;;;;;;5083778;28;20024;-47
2021/10/21 10:33:12;;;;;;;2.45;1.13;;;11.60;99.90;;;;;;5079097;28;20046;-46
2021/10/21 10:35:39;;;;;;;3.75;1.13;;;11.40;99.90;;;;;;5085449;28;20024;-48
2021/10/21 10:38:09;;;;;;;2.42;0.90;;;11.50;99.90;;;;;;5069885;28;20266;-46
2021/10/21 10:40:46;;;;;;;2.80;0.90;;;11.80;99.90;;;;;;5079618;28;20179;-46
2021/10/21 10:43:13;;;;;;;2.08;1.20;;;12.20;99.90;;;;;;5075544;28;20278;-48
2021/10/21 10:45:51;;;;;;;1.35;0.70;;;12.50;99.90;;;;;;5079912;28;20500;-46
2021/10/21 10:48:51;;;;;;;1.25;0.80;;;13.10;99.90;;;;;;5081000;28;20023;-49
2021/10/21 10:51:17;;;;;;;3.77;0.87;;;13.10;99.90;;;;;;5075916;28;20124;-47
2021/10/21 10:53:44;;;;;;;6.30;0.95;;;13.10;99.90;;;;;;5071115;28;20163;-48
2021/10/21 10:56:39;;;;;;;0.90;0.70;;;12.70;99.90;;;;;;5074792;28;20112;-46
2021/10/21 10:59:23;;;;;;;2.22;1.02;;;12.50;99.90;;;;;;5071709;28;20115;-47
2021/10/21 11:01:50;;;;;;;7.43;1.17;;;12.30;99.90;;;;;;5086721;28;20030;-46
2021/10/21 11:04:51;;;;;;;3.22;1.10;;;12.20;99.90;;;;;;5076313;28;20561;-46
2021/10/21 11:07:17;;;;;;;;;;;12.10;99.90;;;;;;5046194;28;20024;-48
2021/10/21 11:09:44;;;;;;;4.82;1.52;;;12.00;99.90;;;;;;5075320;28;20278;-47
2021/10/21 11:12:12;;;;;;;3.15;1.08;;;12.00;99.90;;;;;;5088027;28;20135;-48
2021/10/21 11:14:39;;;;;;;1.85;1.13;;;12.40;99.90;;;;;;5074861;28;20052;-46
2021/10/21 11:17:06;;;;;;;8.02;0.90;;;13.20;99.90;;;;;;5080090;28;20024;-48
2021/10/21 11:19:47;;;;;;;3.17;1.02;;;13.60;99.90;;;;;;5080392;28;20443;-46
2021/10/21 11:22:36;;;;;;;2.65;1.17;;;14.80;99.90;;;;;;5079443;28;20421;-48
2021/10/21 11:25:08;;;;;;;4.07;1.23;;;15.10;99.90;;;;;;5087780;28;20030;-48
2021/10/21 11:27:44;;;;;;;4.20;1.20;;;15.60;99.90;;;;;;5083068;28;20039;-47
2021/10/21 11:30:25;;;;;;;5.35;1.13;;;16.20;99.90;;;;;;5083249;28;20018;-48
2021/10/21 11:32:53;;;;;;;5.70;1.45;;;16.60;99.90;;;;;;5081384;28;20028;-46
2021/10/21 11:35:36;;;;;;;5.95;1.10;;;16.60;99.90;;;;;;5061581;28;20051;-48
2021/10/21 11:38:14;;;;;;;7.70;1.48;;;16.40;99.90;;;;;;5071298;28;20230;-46
2021/10/21 11:40:48;;;;;;;7.10;1.77;;;15.80;99.90;;;;;;5071033;28;20501;-46
2021/10/21 11:43:35;;;;;;;8.85;1.85;;;15.20;99.90;;;;;;5082670;28;20028;-47
2021/10/21 11:46:04;;;;;;;4.65;2.10;;;14.80;99.90;;;;;;5083182;28;20466;-48
2021/10/21 11:48:33;;;;;;;9.85;1.50;;;14.50;99.90;;;;;;5073408;28;20016;-48
2021/10/21 11:51:02;;;;;;;6.80;1.80;;;14.10;99.90;;;;;;5089888;28;20028;-49
2021/10/21 11:53:29;;;;;;;10.10;1.95;;;13.70;99.90;;;;;;5075284;28;20108;-46
2021/10/21 11:55:55;;;;;;;8.18;2.25;;;13.50;99.90;;;;;;5091084;28;20028;-48
2021/10/21 11:58:25;;;;;;;7.57;1.92;;;13.40;99.90;;;;;;5075549;28;20020;-46
2021/10/21 12:00:59;;;;;;;5.97;2.13;;;13.20;99.90;;;;;;5089342;28;20111;-48
2021/10/21 12:03:38;;;;;;;7.22;1.90;;;13.10;99.90;;;;;;5075688;28;20496;-46
2021/10/21 12:06:05;;;;;;;6.18;1.73;;;12.90;99.90;;;;;;5076220;28;20026;-48
2021/10/21 12:08:31;;;;;;;12.50;2.00;;;13.40;99.90;;;;;;5077442;28;20162;-46
2021/10/21 12:10:59;;;;;;;6.95;2.17;;;14.10;99.90;;;;;;5062450;28;20096;-47
2021/10/21 12:13:29;;;;;;;4.13;1.95;;;14.90;99.90;;;;;;5063038;28;20182;-47
2021/10/21 12:16:01;;;;;;;9.88;1.85;;;15.60;99.90;;;;;;5078341;28;20025;-46
2021/10/21 12:18:30;;;;;;;8.65;2.05;;;15.80;99.90;;;;;;5073261;28;20028;-46
2021/10/21 12:21:05;;;;;;;8.95;2.20;;;15.60;99.90;;;;;;5081923;28;20363;-46
2021/10/21 12:23:35;;;;;;;8.63;1.80;;;15.30;99.90;;;;;;5081466;28;20101;-47
2021/10/21 12:26:04;;;;;;;9.38;2.05;;;15.20;99.90;;;;;;5082733;28;20013;-47
2021/10/21 12:28:47;;;;;;;6.22;1.95;;;14.90;99.90;;;;;;5082857;28;20032;-46
2021/10/21 12:31:19;;;;;;;7.97;1.50;;;15.00;99.90;;;;;;5076381;28;20020;-48
2021/10/21 12:33:59;;;;;;;7.57;2.10;;;15.30;99.90;;;;;;5084103;28;20028;-50
2021/10/21 12:36:27;;;;;;;;;;;15.60;99.90;;;;;;5086634;28;20432;-49
2021/10/21 12:38:53;;;;;;;5.18;1.65;;;15.50;99.90;;;;;;5084081;28;19963;-50
2021/10/21 12:41:22;;;;;;;12.77;1.98;;;15.40;99.50;;;;;;5084728;28;20028;-48
2021/10/21 12:44:05;;;;;;;6.88;2.40;;;15.60;99.90;;;;;;5069961;28;20119;-46
2021/10/21 12:46:31;;;;;;;6.18;2.08;;;15.00;99.90;;;;;;5074713;28;20115;-47
2021/10/21 12:49:18;;;;;;;8.95;2.63;;;15.00;99.90;;;;;;5066455;28;20545;-47
2021/10/21 12:51:45;;;;;;;9.95;2.40;;;14.80;99.90;;;;;;5081771;28;20220;-47
2021/10/21 12:54:31;;;;;;;10.55;2.95;;;15.00;99.90;;;;;;5085678;28;20112;-47
2021/10/21 12:57:00;;;;;;;7.05;2.95;;;15.10;99.80;;;;;;5080994;28;20107;-46
2021/10/21 12:59:30;;;;;;;5.65;1.83;;;14.70;99.90;;;;;;5068412;28;20126;-49
2021/10/21 13:02:00;;;;;;;7.50;2.60;;;14.40;99.90;;;;;;5069952;28;20262;-46
2021/10/21 13:04:38;;;;;;;9.00;2.55;;;14.20;99.90;;;;;;5058362;28;20364;-48
2021/10/21 13:07:04;;;;;;;7.43;2.40;;;13.90;99.90;;;;;;5064069;28;20024;-46
2021/10/21 13:09:31;;;;;;;6.60;3.05;;;13.90;99.90;;;;;;5061044;28;20025;-48
2021/10/21 13:11:57;;;;;;;7.00;2.30;;;13.80;99.90;;;;;;5065521;28;20016;-47